Platte, Nebraska
Current Conditions -  °F | °C
As of 8:53 AM on Wednesday 22 Oct 2014 (Local Time) from KHSI Reporting Station
Clear Clear  
Wind Chill: 14°   Ceiling: Unl
Heat Index: 14°   Visibility: 7mi
Dew Point: 12°   Wind: 9mph
Humidity: 87%   Direction: 160°SSE
Pressure: 30.01"   Gusts: NA
Location:  40.6115°N, 98.6672°W
Report Text: KHSI 221353Z AUTO 16008KT 7SM CLR 14/12 A3001 RMK AO2 SLP156 T01390117
Loading
Personal Weather Stations






























Interactive Weather Map
Tropical Storm Tracking
New forecast layout! Learn more

10-Day Weather Forecast

Advertisements
Track Severe Weather on mobile